Floe, West Virginia
Current Conditions -  °F | °C
As of 5:54 PM on Thursday 27 Nov 2014 (Local Time) from KCRW Reporting Station
Light Snow Light Snow  
Wind Chill: 24°   Ceiling: 2300
Heat Index: 31°   Visibility: 4mi
Dew Point: 26°   Wind: 7mph
Humidity: 82%   Direction: NA
Pressure: 30.28"   Gusts: 18mph
Location:  38.6746°N, 81.0928°W
Report Text: KCRW 272254Z VRB06G16KT 4SM -SN FEW016 BKN023 OVC048 M01/M03 A3028 RMK AO2 SLP261 P0000 T10061033
Loading
Personal Weather Stations






























Interactive Weather Map New forecast layout! Learn more

10-Day Weather Forecast

Advertisements
Track Severe Weather on mobile